Time;durP1;ratioP1;P1;durP2;ratioP2;P2;SDS_P1;SDS_P2;PMS_P1;PMS_P2;Temp;Humidity;BMP_temperature;BMP_pressure;BME280_temperature;BME280_humidity;BME280_pressure;Samples;Min_cycle;Max_cycle;Signal;HPM_P1;HPM_P2
2023/02/05 00:01:21;;;;;;;10.60;6.03;;;;;;;;;;6179133;23;20438;-74
2023/02/05 00:03:49;;;;;;;9.83;6.70;;;;;;;;;;6178840;23;20408;-76
2023/02/05 00:06:16;;;;;;;9.50;5.93;;;;;;;;;;6178921;23;20394;-75
2023/02/05 00:08:43;;;;;;;9.57;6.43;;;;;;;;;;6179302;23;20568;-74
2023/02/05 00:11:11;;;;;;;9.50;6.10;;;;;;;;;;6179201;23;20668;-76
2023/02/05 00:13:38;;;;;;;9.50;6.00;;;;;;;;;;6178659;23;20435;-76
2023/02/05 00:16:07;;;;;;;9.80;7.27;;;;;;;;;;6179157;23;20407;-74
2023/02/05 00:18:37;;;;;;;7.80;5.93;;;;;;;;;;6178784;23;20412;-75
2023/02/05 00:21:04;;;;;;;7.50;6.70;;;;;;;;;;6179055;23;20413;-76
2023/02/05 00:23:31;;;;;;;9.17;6.47;;;;;;;;;;6179183;23;20702;-75
2023/02/05 00:25:58;;;;;;;8.07;6.30;;;;;;;;;;6179186;23;20415;-75
2023/02/05 00:28:25;;;;;;;10.20;6.07;;;;;;;;;;6179170;23;20412;-75
2023/02/05 00:30:52;;;;;;;11.47;7.30;;;;;;;;;;6179462;23;20448;-74
2023/02/05 00:33:20;;;;;;;7.30;5.20;;;;;;;;;;6180915;23;20422;-74
2023/02/05 00:35:49;;;;;;;13.80;6.63;;;;;;;;;;6180058;23;20966;-73
2023/02/05 00:38:16;;;;;;;7.57;6.77;;;;;;;;;;6180921;23;20429;-74
2023/02/05 00:40:43;;;;;;;8.60;5.80;;;;;;;;;;6180754;23;20427;-74
2023/02/05 00:43:10;;;;;;;9.53;6.27;;;;;;;;;;6180632;23;20422;-74
2023/02/05 00:45:37;;;;;;;7.13;4.97;;;;;;;;;;6180476;23;20408;-74
2023/02/05 00:48:05;;;;;;;4.53;4.10;;;;;;;;;;6180913;23;20411;-74
2023/02/05 00:50:32;;;;;;;5.53;5.03;;;;;;;;;;6180131;23;20411;-75
2023/02/05 00:53:01;;;;;;;6.40;5.50;;;;;;;;;;6180314;23;20951;-74
2023/02/05 00:55:28;;;;;;;10.43;6.80;;;;;;;;;;6180658;23;20411;-74
2023/02/05 00:57:55;;;;;;;10.07;6.33;;;;;;;;;;6180433;23;20411;-73
2023/02/05 01:00:22;;;;;;;9.43;6.67;;;;;;;;;;6180471;23;20477;-74
2023/02/05 01:02:49;;;;;;;7.63;6.37;;;;;;;;;;6180295;23;20781;-74
2023/02/05 01:05:16;;;;;;;13.43;7.00;;;;;;;;;;6180686;23;20434;-76
2023/02/05 01:07:43;;;;;;;10.50;5.90;;;;;;;;;;6180784;23;20746;-77
2023/02/05 01:10:12;;;;;;;8.97;6.50;;;;;;;;;;6179899;23;20784;-75
2023/02/05 01:12:39;;;;;;;8.67;6.97;;;;;;;;;;6180678;23;20448;-76
2023/02/05 01:15:07;;;;;;;7.43;6.10;;;;;;;;;;6180161;23;20446;-76
2023/02/05 01:17:34;;;;;;;15.40;7.77;;;;;;;;;;6180331;23;20419;-74
2023/02/05 01:20:01;;;;;;;16.73;7.17;;;;;;;;;;6180501;23;20421;-76
2023/02/05 01:22:29;;;;;;;9.90;8.20;;;;;;;;;;6180742;23;20408;-74
2023/02/05 01:24:56;;;;;;;11.93;7.50;;;;;;;;;;6180036;23;20743;-74
2023/02/05 01:27:24;;;;;;;9.70;8.67;;;;;;;;;;6179524;23;20909;-75
2023/02/05 01:29:51;;;;;;;11.40;8.57;;;;;;;;;;6180315;23;20411;-74
2023/02/05 01:32:19;;;;;;;14.70;8.43;;;;;;;;;;6179894;23;20975;-74
2023/02/05 01:34:46;;;;;;;12.67;8.57;;;;;;;;;;6180245;23;20420;-74
2023/02/05 01:37:13;;;;;;;13.63;7.83;;;;;;;;;;6180472;23;20418;-73
2023/02/05 01:39:40;;;;;;;11.10;8.50;;;;;;;;;;6180458;23;20438;-74
2023/02/05 01:42:15;;;;;;;16.90;8.30;;;;;;;;;;6180100;23;20732;-74
2023/02/05 01:44:43;;;;;;;12.33;9.63;;;;;;;;;;6179913;23;20418;-74
2023/02/05 01:47:10;;;;;;;14.60;9.13;;;;;;;;;;6180167;23;20411;-74
2023/02/05 01:49:40;;;;;;;12.60;8.23;;;;;;;;;;6180385;23;20422;-76
2023/02/05 01:52:10;;;;;;;12.83;8.83;;;;;;;;;;6180348;23;20454;-73
2023/02/05 01:54:38;;;;;;;11.73;8.53;;;;;;;;;;6180147;23;20893;-74
2023/02/05 01:57:08;;;;;;;13.93;8.60;;;;;;;;;;6179932;23;20396;-73
2023/02/05 01:59:37;;;;;;;11.17;8.07;;;;;;;;;;6179863;23;20407;-73
2023/02/05 02:02:06;;;;;;;8.87;7.97;;;;;;;;;;6179971;23;20395;-74
2023/02/05 02:04:36;;;;;;;8.53;7.73;;;;;;;;;;6180623;23;20421;-74
2023/02/05 02:07:04;;;;;;;8.60;7.40;;;;;;;;;;6179952;23;20895;-77
2023/02/05 02:09:31;;;;;;;10.93;8.47;;;;;;;;;;6179843;23;20399;-75
2023/02/05 02:11:58;;;;;;;12.03;8.27;;;;;;;;;;6180045;23;20435;-74
2023/02/05 02:14:26;;;;;;;11.33;7.40;;;;;;;;;;6179679;23;20444;-74
2023/02/05 02:16:54;;;;;;;10.47;8.07;;;;;;;;;;6179897;23;20415;-73
2023/02/05 02:19:26;;;;;;;8.60;7.10;;;;;;;;;;6179817;23;20411;-74
2023/02/05 02:22:12;;;;;;;6.87;5.70;;;;;;;;;;6179901;23;20404;-74
2023/02/05 02:25:05;;;;;;;9.60;7.30;;;;;;;;;;6179591;23;20407;-73
2023/02/05 02:27:44;;;;;;;9.27;6.97;;;;;;;;;;6179819;23;20399;-76
2023/02/05 02:30:15;;;;;;;7.30;4.40;;;;;;;;;;6180253;23;20398;-74
2023/02/05 02:32:46;;;;;;;4.03;3.50;;;;;;;;;;6180287;23;20439;-74
2023/02/05 02:35:16;;;;;;;10.83;5.43;;;;;;;;;;6179443;23;20411;-74
2023/02/05 02:37:46;;;;;;;4.63;4.03;;;;;;;;;;6179423;23;20426;-76
2023/02/05 02:40:18;;;;;;;5.67;4.33;;;;;;;;;;6179905;23;20388;-74
2023/02/05 02:42:48;;;;;;;5.97;5.00;;;;;;;;;;6180208;23;20768;-73
2023/02/05 02:45:16;;;;;;;5.07;3.97;;;;;;;;;;6180314;23;20438;-75
2023/02/05 02:47:46;;;;;;;4.70;3.93;;;;;;;;;;6180203;23;20422;-73
2023/02/05 02:50:15;;;;;;;9.73;5.33;;;;;;;;;;6179776;23;20379;-76
2023/02/05 02:52:44;;;;;;;7.93;6.20;;;;;;;;;;6182075;23;20534;-74
2023/02/05 02:55:13;;;;;;;9.97;6.70;;;;;;;;;;6183006;23;20408;-74
2023/02/05 02:57:41;;;;;;;9.30;7.00;;;;;;;;;;6184719;23;20410;-74
2023/02/05 03:00:12;;;;;;;8.73;7.17;;;;;;;;;;6184235;23;20446;-74
2023/02/05 03:02:40;;;;;;;13.10;8.50;;;;;;;;;;6184376;23;20397;-77
2023/02/05 03:05:10;;;;;;;14.17;7.37;;;;;;;;;;6181557;23;20415;-75
2023/02/05 03:07:39;;;;;;;9.73;7.10;;;;;;;;;;6179614;23;20395;-73
2023/02/05 03:10:09;;;;;;;9.13;6.27;;;;;;;;;;6179766;23;20992;-73
2023/02/05 03:12:36;;;;;;;10.07;7.57;;;;;;;;;;6179717;23;20703;-74
2023/02/05 03:15:03;;;;;;;14.33;6.97;;;;;;;;;;6179685;23;20439;-74
2023/02/05 03:17:32;;;;;;;7.83;5.90;;;;;;;;;;6180565;23;20418;-75
2023/02/05 03:20:02;;;;;;;8.17;5.83;;;;;;;;;;6181337;23;20416;-75
2023/02/05 03:22:29;;;;;;;12.67;6.60;;;;;;;;;;6185181;23;20445;-75
2023/02/05 03:24:56;;;;;;;7.63;5.73;;;;;;;;;;6183997;23;20419;-74
2023/02/05 03:27:23;;;;;;;6.50;5.53;;;;;;;;;;6182888;23;20411;-74
2023/02/05 03:29:51;;;;;;;8.00;5.60;;;;;;;;;;6183657;23;20404;-76
2023/02/05 03:32:23;;;;;;;7.83;4.87;;;;;;;;;;6178872;23;20791;-73
2023/02/05 03:34:58;;;;;;;6.50;5.57;;;;;;;;;;6178403;23;20410;-73
2023/02/05 03:37:31;;;;;;;6.90;5.23;;;;;;;;;;6178180;23;20411;-75
2023/02/05 03:40:03;;;;;;;8.20;5.70;;;;;;;;;;6178635;23;20396;-74
2023/02/05 03:42:35;;;;;;;7.50;5.20;;;;;;;;;;6178709;23;20392;-74
2023/02/05 03:45:13;;;;;;;7.27;5.70;;;;;;;;;;6177836;23;20755;-74
2023/02/05 03:47:49;;;;;;;9.17;5.90;;;;;;;;;;6178135;23;20889;-75
2023/02/05 03:50:22;;;;;;;7.20;5.93;;;;;;;;;;6178079;23;20404;-74
2023/02/05 03:52:51;;;;;;;7.00;5.60;;;;;;;;;;6177862;23;20780;-75
2023/02/05 03:55:19;;;;;;;5.70;5.00;;;;;;;;;;6178012;23;20421;-73
2023/02/05 03:57:50;;;;;;;14.37;6.83;;;;;;;;;;6177585;23;20418;-73
2023/02/05 04:00:17;;;;;;;6.40;5.70;;;;;;;;;;6178005;23;20419;-74
2023/02/05 04:02:44;;;;;;;7.33;6.27;;;;;;;;;;6177964;23;20434;-74
2023/02/05 04:05:11;;;;;;;8.20;5.70;;;;;;;;;;6179046;23;20411;-74
2023/02/05 04:07:39;;;;;;;9.40;5.90;;;;;;;;;;6181078;23;20422;-75
2023/02/05 04:10:07;;;;;;;9.33;5.90;;;;;;;;;;6181299;23;20407;-75
2023/02/05 04:12:34;;;;;;;7.07;5.73;;;;;;;;;;6180760;23;20452;-75
2023/02/05 04:15:02;;;;;;;8.07;6.27;;;;;;;;;;6180392;23;20447;-74
2023/02/05 04:17:29;;;;;;;7.37;5.63;;;;;;;;;;6181175;23;20403;-74
2023/02/05 04:19:56;;;;;;;7.27;5.60;;;;;;;;;;6181661;23;20411;-75
2023/02/05 04:22:23;;;;;;;9.43;6.93;;;;;;;;;;6181444;23;20403;-75
2023/02/05 04:24:51;;;;;;;8.30;5.97;;;;;;;;;;6180673;23;21128;-73
2023/02/05 04:27:18;;;;;;;7.97;5.30;;;;;;;;;;6180894;23;20405;-74
2023/02/05 04:29:45;;;;;;;10.90;6.97;;;;;;;;;;6180499;23;20415;-74
2023/02/05 04:32:13;;;;;;;8.60;5.97;;;;;;;;;;6181187;23;20468;-74
2023/02/05 04:34:40;;;;;;;8.00;6.37;;;;;;;;;;6181272;23;20438;-74
2023/02/05 04:37:07;;;;;;;11.30;6.97;;;;;;;;;;6180513;23;20954;-74
2023/02/05 04:39:34;;;;;;;9.87;6.87;;;;;;;;;;6180722;23;20400;-75
2023/02/05 04:42:02;;;;;;;8.13;5.63;;;;;;;;;;6181285;23;20412;-74
2023/02/05 04:44:29;;;;;;;13.23;6.00;;;;;;;;;;6180884;23;20921;-75
2023/02/05 04:46:56;;;;;;;11.23;6.53;;;;;;;;;;6181099;23;20395;-74
2023/02/05 04:49:24;;;;;;;9.03;6.30;;;;;;;;;;6180950;23;20423;-76
2023/02/05 04:51:51;;;;;;;8.60;5.30;;;;;;;;;;6180567;23;20957;-74
2023/02/05 04:54:18;;;;;;;10.23;6.80;;;;;;;;;;6181073;23;20407;-74
2023/02/05 04:56:45;;;;;;;8.70;6.83;;;;;;;;;;6180868;23;20411;-73
2023/02/05 04:59:14;;;;;;;10.60;5.80;;;;;;;;;;6180852;23;20502;-74
2023/02/05 05:01:41;;;;;;;6.40;5.27;;;;;;;;;;6180438;23;20415;-74
2023/02/05 05:04:08;;;;;;;8.40;5.33;;;;;;;;;;6180223;23;20408;-74
2023/02/05 05:06:35;;;;;;;10.80;5.90;;;;;;;;;;6180865;23;20412;-75
2023/02/05 05:09:02;;;;;;;11.30;7.33;;;;;;;;;;6180844;23;20406;-74
2023/02/05 05:11:29;;;;;;;13.13;6.73;;;;;;;;;;6181147;23;20402;-75
2023/02/05 05:13:56;;;;;;;6.60;5.47;;;;;;;;;;6180198;23;20627;-75
2023/02/05 05:16:24;;;;;;;6.80;4.90;;;;;;;;;;6180561;23;20416;-75
2023/02/05 05:18:52;;;;;;;6.77;5.33;;;;;;;;;;6180110;23;20446;-73
2023/02/05 05:21:19;;;;;;;9.00;5.90;;;;;;;;;;6180731;23;20407;-73
2023/02/05 05:23:46;;;;;;;6.07;5.47;;;;;;;;;;6180976;23;20404;-74
2023/02/05 05:26:13;;;;;;;9.40;5.23;;;;;;;;;;6180499;23;20739;-74
2023/02/05 05:28:40;;;;;;;6.03;4.43;;;;;;;;;;6180270;23;20669;-74
2023/02/05 05:31:08;;;;;;;6.40;5.80;;;;;;;;;;6188542;23;20422;-73
2023/02/05 05:33:37;;;;;;;5.60;4.33;;;;;;;;;;6180077;23;20447;-73
2023/02/05 05:36:04;;;;;;;5.90;5.10;;;;;;;;;;6180830;23;20419;-74
2023/02/05 05:38:31;;;;;;;6.63;5.30;;;;;;;;;;6180661;23;20407;-74
2023/02/05 05:43:49;;;;;;;5.27;4.63;;;;;;;;;;6122837;23;20428;-74
2023/02/05 05:46:20;;;;;;;6.20;4.63;;;;;;;;;;6180519;23;20729;-72
2023/02/05 05:48:49;;;;;;;6.80;4.80;;;;;;;;;;6180851;23;20414;-74
2023/02/05 05:51:16;;;;;;;5.90;4.30;;;;;;;;;;6180349;23;20437;-76
2023/02/05 05:53:43;;;;;;;8.33;5.60;;;;;;;;;;6180492;23;20486;-74
2023/02/05 05:56:11;;;;;;;6.83;5.23;;;;;;;;;;6180599;23;20417;-73
2023/02/05 05:58:38;;;;;;;6.87;5.30;;;;;;;;;;6179602;23;20516;-74
2023/02/05 06:01:05;;;;;;;6.27;5.67;;;;;;;;;;6179978;23;20926;-75
2023/02/05 06:03:32;;;;;;;6.33;5.30;;;;;;;;;;6179923;23;20927;-74
2023/02/05 06:06:02;;;;;;;7.07;5.47;;;;;;;;;;6180533;23;20427;-74
2023/02/05 06:08:29;;;;;;;10.03;4.70;;;;;;;;;;6180315;23;20795;-73
2023/02/05 06:10:56;;;;;;;7.97;5.10;;;;;;;;;;6179797;23;20447;-74
2023/02/05 06:13:23;;;;;;;10.33;5.30;;;;;;;;;;6179589;23;20529;-73
2023/02/05 06:15:51;;;;;;;5.57;5.00;;;;;;;;;;6180328;23;20429;-75
2023/02/05 06:18:18;;;;;;;5.80;5.17;;;;;;;;;;6180297;23;20410;-73
2023/02/05 06:20:45;;;;;;;4.70;4.30;;;;;;;;;;6180053;23;20422;-74
2023/02/05 06:23:14;;;;;;;5.63;4.53;;;;;;;;;;6180559;23;20407;-75
2023/02/05 06:25:41;;;;;;;5.63;3.97;;;;;;;;;;6179281;23;21112;-74
2023/02/05 06:28:08;;;;;;;5.50;4.30;;;;;;;;;;6179119;23;20422;-76
2023/02/05 06:30:35;;;;;;;5.70;4.77;;;;;;;;;;6179911;23;20414;-74
2023/02/05 06:33:02;;;;;;;7.33;4.70;;;;;;;;;;6180341;23;20465;-73
2023/02/05 06:35:29;;;;;;;7.67;5.40;;;;;;;;;;6179750;23;20908;-74
2023/02/05 06:37:56;;;;;;;5.80;4.63;;;;;;;;;;6179089;23;20486;-73
2023/02/05 06:40:26;;;;;;;7.27;5.60;;;;;;;;;;6178349;23;20752;-73
2023/02/05 06:42:54;;;;;;;8.47;4.47;;;;;;;;;;6178930;23;20457;-73
2023/02/05 06:45:21;;;;;;;6.23;5.23;;;;;;;;;;6178849;23;20751;-72
2023/02/05 06:47:48;;;;;;;4.83;4.40;;;;;;;;;;6179010;23;20415;-75
2023/02/05 06:50:15;;;;;;;5.50;4.20;;;;;;;;;;6179426;23;20411;-76
2023/02/05 06:52:42;;;;;;;7.13;5.10;;;;;;;;;;6179105;23;20451;-75
2023/02/05 06:55:09;;;;;;;4.40;3.60;;;;;;;;;;6178499;23;20426;-75
2023/02/05 06:57:38;;;;;;;5.87;5.13;;;;;;;;;;6178173;23;20422;-74
2023/02/05 07:00:06;;;;;;;6.27;4.63;;;;;;;;;;6179210;23;20775;-74
2023/02/05 07:02:33;;;;;;;6.17;5.30;;;;;;;;;;6178915;23;20414;-75
2023/02/05 07:05:00;;;;;;;8.13;4.80;;;;;;;;;;6178696;23;20425;-78
2023/02/05 07:07:27;;;;;;;7.67;4.80;;;;;;;;;;6179053;23;20459;-75
2023/02/05 07:09:54;;;;;;;5.30;4.50;;;;;;;;;;6178840;23;20908;-76
2023/02/05 07:12:21;;;;;;;4.07;3.77;;;;;;;;;;6178868;23;20776;-74
2023/02/05 07:14:50;;;;;;;7.90;4.20;;;;;;;;;;6179076;23;20802;-74
2023/02/05 07:17:17;;;;;;;7.23;4.80;;;;;;;;;;6179303;23;20411;-74
2023/02/05 07:19:44;;;;;;;5.97;5.37;;;;;;;;;;6178701;23;20413;-75
2023/02/05 07:22:13;;;;;;;8.77;5.50;;;;;;;;;;6179060;23;20735;-73
2023/02/05 07:24:40;;;;;;;6.27;5.33;;;;;;;;;;6178854;23;20469;-73
2023/02/05 07:27:07;;;;;;;8.67;5.60;;;;;;;;;;6178912;23;20905;-73
2023/02/05 07:29:34;;;;;;;6.63;4.60;;;;;;;;;;6179240;23;20411;-73
2023/02/05 07:32:03;;;;;;;6.53;5.17;;;;;;;;;;6178510;23;20408;-75
2023/02/05 07:34:30;;;;;;;6.57;4.60;;;;;;;;;;6178431;23;20960;-73
2023/02/05 07:36:57;;;;;;;6.00;4.80;;;;;;;;;;6178493;23;20417;-74
2023/02/05 07:39:26;;;;;;;6.27;4.37;;;;;;;;;;6179778;23;20418;-75
2023/02/05 07:41:54;;;;;;;5.90;3.97;;;;;;;;;;6180873;23;20415;-81
2023/02/05 07:44:21;;;;;;;5.47;4.30;;;;;;;;;;6182147;23;20403;-78
2023/02/05 07:46:48;;;;;;;4.70;3.67;;;;;;;;;;6183916;23;20975;-75
2023/02/05 07:49:16;;;;;;;5.70;4.00;;;;;;;;;;6182439;23;20406;-79
2023/02/05 07:51:43;;;;;;;4.00;3.60;;;;;;;;;;6180740;23;20419;-75
2023/02/05 07:54:11;;;;;;;4.60;3.87;;;;;;;;;;6180376;23;20445;-75
2023/02/05 07:56:38;;;;;;;4.67;3.27;;;;;;;;;;6180785;23;20430;-75
2023/02/05 07:59:05;;;;;;;4.47;3.43;;;;;;;;;;6180453;23;20406;-80
2023/02/05 08:01:32;;;;;;;5.47;4.97;;;;;;;;;;6180238;23;20411;-74
2023/02/05 08:04:00;;;;;;;5.40;4.70;;;;;;;;;;6180252;23;21057;-74
2023/02/05 08:06:28;;;;;;;4.67;4.20;;;;;;;;;;6180324;23;20392;-74
2023/02/05 08:08:55;;;;;;;5.03;4.23;;;;;;;;;;6180580;23;20418;-74
2023/02/05 08:11:22;;;;;;;5.70;4.23;;;;;;;;;;6180833;23;20410;-72
2023/02/05 08:13:49;;;;;;;5.80;4.90;;;;;;;;;;6179686;23;20455;-73
2023/02/05 08:16:17;;;;;;;7.00;4.37;;;;;;;;;;6179872;23;20745;-73
2023/02/05 08:18:47;;;;;;;6.17;5.03;;;;;;;;;;6180270;23;20415;-74
2023/02/05 08:21:14;;;;;;;11.10;4.80;;;;;;;;;;6180256;23;20713;-73
2023/02/05 08:23:43;;;;;;;6.33;5.20;;;;;;;;;;6180263;23;20434;-71
2023/02/05 08:26:10;;;;;;;6.80;4.87;;;;;;;;;;6180575;23;20494;-72
2023/02/05 08:28:37;;;;;;;7.03;5.30;;;;;;;;;;6180766;23;20415;-73
2023/02/05 08:31:09;;;;;;;8.10;5.13;;;;;;;;;;6180519;23;20418;-73
2023/02/05 08:33:37;;;;;;;5.37;4.50;;;;;;;;;;6180883;23;20535;-74
2023/02/05 08:36:04;;;;;;;7.60;5.00;;;;;;;;;;6180466;23;20410;-72
2023/02/05 08:38:31;;;;;;;10.17;4.67;;;;;;;;;;6179109;23;20422;-73
2023/02/05 08:40:59;;;;;;;7.17;5.30;;;;;;;;;;6180501;23;20416;-73
2023/02/05 08:43:54;;;;;;;7.00;4.37;;;;;;;;;;6180366;23;20408;-73
2023/02/05 08:46:24;;;;;;;6.50;5.23;;;;;;;;;;6180604;23;20395;-73
2023/02/05 08:48:53;;;;;;;5.60;4.23;;;;;;;;;;6180390;23;20399;-73
2023/02/05 08:51:22;;;;;;;6.90;4.47;;;;;;;;;;6180200;23;20412;-73
2023/02/05 08:53:50;;;;;;;4.90;4.30;;;;;;;;;;6179856;23;20525;-74
2023/02/05 08:56:19;;;;;;;4.97;4.33;;;;;;;;;;6180073;23;20917;-75
2023/02/05 08:58:48;;;;;;;5.10;4.60;;;;;;;;;;6180690;23;20408;-73
2023/02/05 09:01:16;;;;;;;6.07;5.47;;;;;;;;;;6180334;23;20418;-75
2023/02/05 09:03:45;;;;;;;5.63;4.40;;;;;;;;;;6180500;23;20411;-74
2023/02/05 09:06:13;;;;;;;5.50;4.70;;;0.70;99.90;;;;;;6180354;23;20909;-78
2023/02/05 09:08:40;;;;;;;4.87;4.37;;;1.20;99.90;;;;;;6179205;23;20420;-74
2023/02/05 09:11:08;;;;;;;12.50;5.20;;;1.40;99.90;;;;;;6179679;23;20776;-74
2023/02/05 09:13:36;;;;;;;4.33;3.93;;;1.20;99.90;;;;;;6179133;23;20450;-74
2023/02/05 09:16:03;;;;;;;5.20;4.70;;;;;;;;;;6179931;23;20386;-74
2023/02/05 09:18:31;;;;;;;5.40;4.70;;;;;;;;;;6179761;23;20412;-76
2023/02/05 09:20:57;;;;;;;6.43;4.20;;;2.00;99.90;;;;;;6180250;23;20413;-76
2023/02/05 09:23:26;;;;;;;5.70;4.13;;;;;;;;;;6180246;23;20715;-76
2023/02/05 09:25:53;;;;;;;5.90;5.30;;;;;;;;;;6179375;23;20764;-76
2023/02/05 09:28:20;;;;;;;5.20;4.70;;;;;;;;;;6179685;23;20404;-74
2023/02/05 09:30:48;;;;;;;7.47;5.60;;;;;;;;;;6179029;23;20401;-74
2023/02/05 09:33:15;;;;;;;5.80;4.60;;;;;;;;;;6179631;23;20417;-75
2023/02/05 09:35:42;;;;;;;9.80;5.87;;;;;;;;;;6180292;23;20448;-79
2023/02/05 09:38:10;;;;;;;5.97;4.47;;;;;;;;;;6180024;23;20400;-79
2023/02/05 09:40:41;;;;;;;6.13;5.10;;;5.30;99.90;;;;;;6179745;23;20446;-76
2023/02/05 09:43:23;;;;;;;8.23;5.27;;;5.70;99.90;;;;;;6180202;23;20388;-74
2023/02/05 09:45:58;;;;;;;5.23;4.40;;;4.00;99.90;;;;;;6178920;23;20400;-75
2023/02/05 09:48:48;;;;;;;6.37;5.77;;;3.90;99.90;;;;;;6180012;23;20909;-72
2023/02/05 09:51:18;;;;;;;8.30;5.73;;;4.40;99.90;;;;;;6179878;23;20454;-72
2023/02/05 09:53:49;;;;;;;6.40;5.50;;;3.70;99.90;;;;;;6179440;23;20427;-75
2023/02/05 09:56:18;;;;;;;7.10;4.23;;;3.10;99.90;;;;;;6176413;23;20753;-73
2023/02/05 09:58:48;;;;;;;8.63;4.47;;;3.40;99.90;;;;;;6177783;23;20412;-75
2023/02/05 10:01:21;;;;;;;7.93;5.07;;;3.40;99.90;;;;;;6178655;23;20884;-75
2023/02/05 10:03:52;;;;;;;6.73;4.80;;;4.20;99.90;;;;;;6177659;23;20926;-78
2023/02/05 10:07:10;;;;;;;6.53;4.63;;;5.40;99.90;;;;;;6178870;23;20380;-75
2023/02/05 10:10:00;;;;;;;4.87;4.10;;;4.30;99.90;;;;;;6058093;23;20467;-74
2023/02/05 10:12:39;;;;;;;5.10;3.77;;;4.50;99.90;;;;;;6178756;23;20392;-75
2023/02/05 10:15:27;;;;;;;5.53;4.10;;;4.80;99.90;;;;;;6178691;23;20457;-75
2023/02/05 10:18:06;;;;;;;4.57;4.10;;;5.30;99.90;;;;;;6178989;23;20735;-74
2023/02/05 10:20:44;;;;;;;4.10;3.70;;;4.00;99.90;;;;;;6178557;23;20398;-75
2023/02/05 10:23:16;;;;;;;7.27;4.33;;;4.00;99.90;;;;;;6179079;23;20393;-75
2023/02/05 10:25:53;;;;;;;6.57;4.10;;;4.60;99.90;;;;;;6179031;23;20729;-75
2023/02/05 10:28:47;;;;;;;4.17;3.77;;;3.80;99.90;;;;;;6178520;23;21160;-76
2023/02/05 10:31:22;;;;;;;4.60;3.40;;;4.00;99.90;;;;;;6178702;23;20731;-77
2023/02/05 10:33:54;;;;;;;5.67;3.50;;;4.40;99.90;;;;;;6178733;23;20404;-75
2023/02/05 10:36:22;;;;;;;5.60;3.57;;;5.50;99.90;;;;;;6178834;23;20402;-76
2023/02/05 10:38:51;;;;;;;3.50;3.20;;;5.30;99.90;;;;;;6178412;23;20421;-76
2023/02/05 10:41:26;;;;;;;6.30;4.10;;;4.50;99.90;;;;;;6178379;23;20404;-79
2023/02/05 10:44:01;;;;;;;6.80;3.07;;;4.40;99.90;;;;;;6178809;23;20398;-77
2023/02/05 10:46:33;;;;;;;5.43;3.87;;;4.80;99.90;;;;;;6178914;23;20376;-78
2023/02/05 10:49:08;;;;;;;5.37;3.93;;;4.90;99.90;;;;;;6179296;23;20407;-78
2023/02/05 10:51:39;;;;;;;9.10;4.00;;;4.60;99.90;;;;;;6179591;23;20396;-75
2023/02/05 10:54:18;;;;;;;9.97;3.37;;;4.30;99.90;;;;;;6179068;23;20427;-83
2023/02/05 10:56:45;;;;;;;9.13;3.63;;;4.20;99.90;;;;;;6178505;23;20392;-80
2023/02/05 10:59:20;;;;;;;6.90;3.57;;;4.40;99.90;;;;;;6178221;23;20407;-79
2023/02/05 11:01:47;;;;;;;4.53;2.93;;;4.20;99.90;;;;;;6178007;23;20390;-77
2023/02/05 11:04:19;;;;;;;7.53;3.77;;;4.40;99.90;;;;;;6178265;23;20415;-80
2023/02/05 11:06:49;;;;;;;3.80;3.30;;;4.60;99.90;;;;;;6179495;23;20396;-79
2023/02/05 11:09:33;;;;;;;6.43;3.47;;;4.60;99.90;;;;;;6182074;23;20512;-78
2023/02/05 11:12:02;;;;;;;4.97;3.40;;;4.30;99.90;;;;;;6182173;23;20393;-76
2023/02/05 11:14:33;;;;;;;6.43;2.77;;;4.20;99.90;;;;;;6180514;23;20454;-78
2023/02/05 11:17:07;;;;;;;5.20;3.20;;;4.00;99.90;;;;;;6182969;23;20384;-75
2023/02/05 11:19:36;;;;;;;4.30;3.30;;;3.80;99.90;;;;;;6182461;23;20815;-75
2023/02/05 11:22:05;;;;;;;5.73;2.73;;;3.80;99.90;;;;;;6179082;23;20412;-74
2023/02/05 11:24:34;;;;;;;8.73;2.80;;;3.70;99.90;;;;;;6179670;23;20408;-78
2023/02/05 11:27:27;;;;;;;11.43;3.87;;;3.70;99.90;;;;;;6180006;23;20412;-75
2023/02/05 11:29:56;;;;;;;7.93;3.27;;;3.60;99.90;;;;;;6151749;23;20420;-75
2023/02/05 11:32:36;;;;;;;4.27;3.23;;;3.60;99.90;;;;;;6179967;23;20415;-76
2023/02/05 11:35:18;;;;;;;6.07;3.27;;;3.60;99.90;;;;;;6184232;23;20424;-80
2023/02/05 11:37:48;;;;;;;6.03;3.23;;;3.60;99.90;;;;;;6180097;23;20753;-82
2023/02/05 11:40:20;;;;;;;4.73;3.10;;;3.70;99.90;;;;;;6179017;23;20430;-80
2023/02/05 11:42:54;;;;;;;12.00;3.27;;;3.90;99.90;;;;;;6180711;23;20392;-82
2023/02/05 11:45:24;;;;;;;5.73;3.40;;;3.50;99.90;;;;;;6181851;23;20393;-80
2023/02/05 11:47:51;;;;;;;3.17;2.77;;;3.40;99.90;;;;;;6182869;23;20404;-80
2023/02/05 11:50:23;;;;;;;7.03;4.30;;;3.50;99.90;;;;;;6181403;23;20411;-79
2023/02/05 11:52:51;;;;;;;7.10;3.10;;;3.50;99.90;;;;;;6182229;23;20949;-82
2023/02/05 11:55:28;;;;;;;6.03;3.13;;;3.50;99.90;;;;;;6181828;23;20470;-79
2023/02/05 11:58:03;;;;;;;4.83;3.23;;;3.40;99.90;;;;;;6181982;23;20941;-80
2023/02/05 12:00:31;;;;;;;2.43;2.23;;;3.40;99.90;;;;;;6182970;23;20423;-78
2023/02/05 12:03:17;;;;;;;7.37;3.10;;;3.40;99.90;;;;;;6182438;23;20404;-77
2023/02/05 12:05:51;;;;;;;10.80;3.23;;;3.40;99.90;;;;;;6187122;23;20376;-80
2023/02/05 12:08:29;;;;;;;11.37;4.03;;;3.40;99.90;;;;;;6185965;23;20422;-78
2023/02/05 12:11:12;;;;;;;8.40;3.00;;;3.50;99.90;;;;;;6181385;23;20396;-78
2023/02/05 12:13:48;;;;;;;7.67;2.87;;;3.70;99.90;;;;;;6179688;23;20446;-78
2023/02/05 12:16:27;;;;;;;8.73;3.07;;;3.60;99.90;;;;;;6179054;23;20450;-81
2023/02/05 12:19:06;;;;;;;7.83;2.90;;;3.90;99.90;;;;;;6180531;23;20392;-90
2023/02/05 12:21:44;;;;;;;5.73;3.00;;;3.70;99.90;;;;;;6183909;23;20466;-83
2023/02/05 12:24:40;;;;;;;5.33;3.07;;;3.60;99.90;;;;;;6182966;23;20467;-83
2023/02/05 12:27:16;;;;;;;5.23;2.70;;;3.50;99.90;;;;;;6182994;23;20388;-85
2023/02/05 12:29:57;;;;;;;10.73;3.17;;;3.50;99.90;;;;;;6185627;23;20415;-79
2023/02/05 12:32:34;;;;;;;6.13;3.10;;;3.40;99.90;;;;;;6184317;23;20732;-87
2023/02/05 12:35:15;;;;;;;6.33;4.23;;;3.40;99.90;;;;;;6197578;23;20529;-87
2023/02/05 12:37:51;;;;;;;9.33;3.60;;;3.30;99.90;;;;;;6192079;23;20979;-85
2023/02/05 12:40:36;;;;;;;8.77;3.33;;;3.40;99.90;;;;;;6182829;23;20475;-78
2023/02/05 12:43:08;;;;;;;7.33;3.47;;;3.40;99.90;;;;;;6182098;23;20953;-82
2023/02/05 12:45:46;;;;;;;11.40;4.77;;;3.70;99.90;;;;;;6182325;23;20460;-85
2023/02/05 12:48:28;;;;;;;9.70;3.90;;;3.50;99.90;;;;;;6180582;23;20407;-84
2023/02/05 12:51:08;;;;;;;6.07;3.37;;;3.50;99.90;;;;;;6181292;23;20391;-82
2023/02/05 12:53:51;;;;;;;8.80;3.87;;;3.90;99.90;;;;;;6181807;23;20443;-82
2023/02/05 12:56:34;;;;;;;8.60;4.00;;;3.90;99.90;;;;;;6181247;23;20999;-81
2023/02/05 12:59:05;;;;;;;3.73;2.67;;;3.50;99.90;;;;;;6180602;23;20768;-82
2023/02/05 13:01:40;;;;;;;7.90;3.70;;;3.30;99.90;;;;;;6180940;23;20881;-84
2023/02/05 13:04:15;;;;;;;7.73;4.03;;;3.40;99.90;;;;;;6179622;23;21156;-81
2023/02/05 13:06:47;;;;;;;8.03;3.83;;;3.70;99.90;;;;;;6181602;23;20400;-80
2023/02/05 13:09:20;;;;;;;7.30;3.47;;;3.80;99.90;;;;;;6181680;23;20888;-80
2023/02/05 13:11:54;;;;;;;6.37;3.17;;;3.50;99.90;;;;;;6179276;23;21103;-84
2023/02/05 13:14:26;;;;;;;8.37;3.83;;;3.20;99.90;;;;;;6180909;23;20495;-82
2023/02/05 13:16:59;;;;;;;6.83;3.87;;;3.40;99.90;;;;;;6179743;23;20527;-77
2023/02/05 13:19:30;;;;;;;6.40;3.63;;;3.00;99.90;;;;;;6177696;23;20427;-79
2023/02/05 13:30:29;;;;;;;7.77;4.10;;;3.00;99.90;;;;;;6184553;23;20376;-80
2023/02/05 13:33:00;;;;;;;10.23;4.67;;;3.00;99.90;;;;;;6178365;23;20400;-79
2023/02/05 13:35:31;;;;;;;10.33;4.70;;;2.80;99.90;;;;;;6178123;23;20428;-79
2023/02/05 13:38:19;;;;;;;5.13;3.80;;;2.80;99.90;;;;;;6177586;23;20494;-79
2023/02/05 13:41:33;;;;;;;9.23;6.47;;;2.80;99.90;;;;;;6176559;23;20401;-79
2023/02/05 13:44:47;;;;;;;10.20;5.73;;;2.70;99.90;;;;;;6138490;23;20755;-79
2023/02/05 13:47:42;;;;;;;11.60;4.80;;;2.80;99.90;;;;;;6122942;23;20427;-84
2023/02/05 13:50:38;;;;;;;11.33;5.23;;;2.50;99.90;;;;;;6180829;23;20427;-80
2023/02/05 13:53:23;;;;;;;11.87;5.37;;;2.60;99.90;;;;;;6178105;23;20435;-79
2023/02/05 13:56:30;;;;;;;19.50;5.17;;;2.50;99.90;;;;;;6178427;23;20466;-79
2023/02/05 13:59:00;;;;;;;12.50;5.47;;;2.40;99.90;;;;;;6171893;23;20415;-81
2023/02/05 14:01:33;;;;;;;10.37;6.10;;;2.40;99.90;;;;;;6176938;23;20457;-81
2023/02/05 14:04:02;;;;;;;15.13;6.07;;;2.40;99.90;;;;;;6178042;23;20406;-78
2023/02/05 14:06:32;;;;;;;12.90;5.23;;;2.30;99.90;;;;;;6174920;23;20407;-77
2023/02/05 14:09:02;;;;;;;9.30;5.10;;;2.20;99.90;;;;;;6174478;23;21097;-77
2023/02/05 14:11:42;;;;;;;11.40;6.30;;;2.20;99.90;;;;;;6175987;23;20439;-77
2023/02/05 14:14:29;;;;;;;10.40;6.90;;;2.20;99.90;;;;;;6175907;23;20606;-77
2023/02/05 14:16:59;;;;;;;9.50;5.80;;;2.20;99.90;;;;;;6174593;23;20457;-78
2023/02/05 14:19:42;;;;;;;11.53;4.90;;;2.20;99.90;;;;;;6175424;23;20422;-78
2023/02/05 14:22:12;;;;;;;14.27;6.43;;;2.60;99.90;;;;;;6174117;23;20422;-78
2023/02/05 14:24:45;;;;;;;12.17;7.50;;;2.10;99.90;;;;;;6166905;23;20412;-80
2023/02/05 14:27:49;;;;;;;16.53;5.60;;;2.30;99.90;;;;;;6172097;23;20467;-82
2023/02/05 14:30:37;;;;;;;11.40;6.80;;;2.40;99.90;;;;;;6173843;23;20458;-78
2023/02/05 14:33:27;;;;;;;9.50;4.87;;;2.20;99.90;;;;;;6173616;23;20392;-79
2023/02/05 14:35:56;;;;;;;14.80;6.90;;;2.20;99.90;;;;;;6175187;23;20432;-79